Time;durP1;ratioP1;P1;durP2;ratioP2;P2;SDS_P1;SDS_P2;PMS_P1;PMS_P2;Temp;Humidity;BMP_temperature;BMP_pressure;BME280_temperature;BME280_humidity;BME280_pressure;Samples;Min_cycle;Max_cycle;Signal;HPM_P1;HPM_P2
2022/03/12 00:01:31;;;;;;;16.30;12.18;;;;;;;5.03;53.73;102340.94;5004286;28;20449;-83
2022/03/12 00:03:59;;;;;;;12.85;11.48;;;;;;;5.39;53.65;102409.78;5004838;28;20056;-83
2022/03/12 00:06:25;;;;;;;13.80;11.73;;;;;;;5.39;53.68;102416.78;5004383;28;20476;-83
2022/03/12 00:08:53;;;;;;;13.57;11.85;;;;;;;5.24;53.79;102387.53;5005764;28;20531;-83
2022/03/12 00:11:21;;;;;;;17.13;12.00;;;;;;;4.92;53.25;102320.28;5004691;28;20072;-83
2022/03/12 00:13:49;;;;;;;14.02;11.15;;;;;;;5.35;53.37;102382.69;5004965;28;20042;-83
2022/03/12 00:16:23;;;;;;;14.30;12.37;;;;;;;5.58;53.22;102430.97;5008321;28;20074;-82
2022/03/12 00:18:53;;;;;;;15.13;12.23;;;;;;;4.35;53.87;102229.47;5008392;28;20096;-83
2022/03/12 00:21:22;;;;;;;16.73;11.83;;;;;;;5.46;54.01;102436.72;5009364;28;20104;-83
2022/03/12 00:23:49;;;;;;;16.07;12.70;;;;;;;5.28;54.86;102423.34;5008067;28;20145;-83
2022/03/12 00:26:17;;;;;;;14.93;11.93;;;;;;;5.12;55.16;102406.38;5007876;28;20068;-83
2022/03/12 00:28:45;;;;;;;15.82;12.35;;;;;;;3.98;54.15;102205.38;5007975;28;20133;-83
2022/03/12 00:31:12;;;;;;;14.00;12.30;;;;;;;5.32;54.65;102417.03;5008985;28;20115;-83
2022/03/12 00:33:39;;;;;;;15.53;12.07;;;;;;;5.41;54.65;102442.16;5008225;28;20134;-83
2022/03/12 00:36:06;;;;;;;18.15;12.50;;;;;;;5.42;54.36;102425.47;5008142;28;20479;-83
2022/03/12 00:38:32;;;;;;;15.37;11.40;;;;;;;5.26;53.68;102393.56;5009026;28;20054;-83
2022/03/12 00:41:02;;;;;;;14.67;11.53;;;;;;;5.40;53.80;102427.28;5007617;28;20159;-84
2022/03/12 00:43:29;;;;;;;22.33;11.60;;;;;;;5.47;54.41;102433.19;5007466;28;20291;-83
2022/03/12 00:45:55;;;;;;;12.67;10.87;;;;;;;5.44;54.55;102434.16;5007652;28;20467;-83
2022/03/12 00:48:22;;;;;;;15.20;10.47;;;;;;;5.14;54.68;102375.59;5007867;28;20137;-83
2022/03/12 00:51:04;;;;;;;18.38;11.00;;;;;;;5.40;54.94;102415.91;5007881;28;20050;-83
2022/03/12 00:53:31;;;;;;;13.73;10.53;;;;;;;5.19;54.50;102391.22;5004273;28;20129;-84
2022/03/12 00:55:57;;;;;;;13.67;11.30;;;;;;;5.54;54.64;102446.06;4989515;28;20286;-84
2022/03/12 00:58:24;;;;;;;16.63;11.50;;;;;;;5.47;54.54;102438.47;4988272;28;20518;-84
2022/03/12 01:00:51;;;;;;;12.77;10.10;;;;;;;5.53;54.60;102436.44;4988243;28;20116;-83
2022/03/12 01:03:18;;;;;;;14.83;11.60;;;;;;;5.53;54.64;102454.00;4988098;28;20050;-84
2022/03/12 01:05:47;;;;;;;15.30;11.65;;;;;;;5.60;54.75;102442.31;4987537;28;20570;-84
2022/03/12 01:08:15;;;;;;;14.40;12.45;;;;;;;5.12;54.64;102364.25;4987813;28;20077;-83
2022/03/12 01:10:43;;;;;;;16.60;12.40;;;;;;;5.48;54.62;102429.63;4987511;28;20068;-83
2022/03/12 01:13:11;;;;;;;12.65;11.35;;;;;;;5.47;54.69;102425.28;5004114;28;20129;-83
2022/03/12 01:15:39;;;;;;;12.87;11.33;;;;;;;5.38;54.65;102430.91;5000690;28;20144;-82
2022/03/12 01:18:13;;;;;;;14.32;11.90;;;;;;;5.45;54.80;102438.50;5008247;28;20046;-82
2022/03/12 01:20:40;;;;;;;15.17;11.93;;;;;;;5.40;55.19;102427.28;5008343;28;20080;-83
2022/03/12 01:23:08;;;;;;;12.27;10.32;;;;;;;5.59;53.69;102416.91;5006757;28;20048;-83
2022/03/12 01:25:35;;;;;;;18.17;10.05;;;;;;;5.76;53.54;102425.00;5006782;28;20451;-83
2022/03/12 01:28:02;;;;;;;13.50;9.90;;;;;;;5.73;53.12;102411.94;5007023;28;20053;-83
2022/03/12 01:30:31;;;;;;;13.23;10.80;;;;;;;5.71;53.31;102405.03;5006644;28;20058;-83
2022/03/12 01:32:58;;;;;;;12.48;11.02;;;;;;;5.67;53.44;102420.09;5007374;28;20050;-82
2022/03/12 01:35:25;;;;;;;12.00;10.77;;;;;;;5.48;53.77;102427.00;5006805;28;20499;-83
2022/03/12 01:37:53;;;;;;;16.77;11.60;;;;;;;5.07;54.97;102388.16;5006863;28;20434;-84
2022/03/12 01:40:20;;;;;;;12.90;10.50;;;;;;;4.91;55.43;102379.97;5006729;28;20138;-81
2022/03/12 01:42:46;;;;;;;11.63;10.47;;;;;;;4.78;55.22;102370.81;5006759;28;20072;-83
2022/03/12 01:45:24;;;;;;;12.50;10.97;;;;;;;5.09;55.41;102417.03;5006717;28;20558;-83
2022/03/12 01:47:55;;;;;;;13.73;11.77;;;;;;;5.15;55.40;102403.66;5006479;28;20052;-84
2022/03/12 01:50:25;;;;;;;14.30;9.63;;;;;;;5.11;55.09;102388.88;5007584;28;20058;-84
2022/03/12 01:52:57;;;;;;;11.37;9.77;;;;;;;4.80;54.38;102326.84;5007660;28;20054;-84
2022/03/12 01:55:27;;;;;;;13.23;10.47;;;;;;;5.23;54.78;102403.38;5006605;28;20050;-83
2022/03/12 01:57:54;;;;;;;11.67;9.77;;;;;;;4.84;53.77;102317.09;5006213;28;20050;-83
2022/03/12 02:00:25;;;;;;;16.30;10.07;;;;;;;4.61;53.98;102249.53;5006756;28;20405;-84
2022/03/12 02:02:53;;;;;;;14.90;10.17;;;;;;;4.97;53.70;102317.47;5013103;28;20057;-83
2022/03/12 02:05:26;;;;;;;10.73;9.07;;;;;;;4.18;53.96;102185.41;5010217;28;20515;-83
2022/03/12 02:07:52;;;;;;;;;;;;;;;5.41;54.07;102399.16;5007856;28;20049;-82
2022/03/12 02:10:20;;;;;;;11.97;8.30;;;;;;;4.60;53.46;102256.56;5008192;28;19968;-82
2022/03/12 02:12:47;;;;;;;12.23;9.33;;;;;;;4.67;53.20;102257.19;5006870;28;20134;-84
2022/03/12 02:15:17;;;;;;;15.03;9.30;;;;;;;5.44;53.71;102385.91;5006451;28;20154;-82
2022/03/12 02:17:47;;;;;;;11.57;9.30;;;;;;;5.53;53.69;102385.50;5006445;28;20121;-83
2022/03/12 02:20:17;;;;;;;12.67;9.70;;;;;;;5.53;53.50;102396.06;5007842;28;20516;-83
2022/03/12 02:22:45;;;;;;;9.70;8.70;;;;;;;5.76;52.82;102376.72;5006628;28;20139;-82
2022/03/12 02:25:13;;;;;;;9.93;8.93;;;;;;;5.32;53.38;102345.94;5006196;28;20046;-82
2022/03/12 02:27:40;;;;;;;11.63;8.60;;;;;;;5.43;53.49;102378.91;5006139;28;20045;-83
2022/03/12 02:30:10;;;;;;;11.70;8.67;;;;;;;5.26;53.31;102348.78;5006023;28;20050;-85
2022/03/12 02:32:37;;;;;;;10.17;8.63;;;;;;;4.35;53.09;102198.78;5006154;28;20077;-83
2022/03/12 02:35:10;;;;;;;10.03;8.87;;;;;;;5.16;53.41;102339.53;5005967;28;20132;-84
2022/03/12 02:37:47;;;;;;;10.57;8.87;;;;;;;4.81;53.31;102260.16;5005658;28;20193;-84
2022/03/12 02:40:16;;;;;;;11.60;8.77;;;;;;;4.61;52.33;102215.31;5005849;28;20053;-82
2022/03/12 02:42:44;;;;;;;11.30;9.13;;;;;;;5.34;53.19;102349.38;5005886;28;20137;-83
2022/03/12 02:45:10;;;;;;;11.07;8.60;;;;;;;4.38;53.26;102180.25;5006941;28;20137;-84
2022/03/12 02:47:41;;;;;;;9.27;8.17;;;;;;;5.27;52.79;102347.03;5007169;28;20393;-82
2022/03/12 02:50:09;;;;;;;9.03;7.43;;;;;;;5.22;53.09;102344.59;5006295;28;20155;-83
2022/03/12 02:52:42;;;;;;;9.10;7.63;;;;;;;4.83;53.02;102278.50;5006852;28;20073;-83
2022/03/12 02:55:14;;;;;;;11.55;9.00;;;;;;;5.20;53.50;102356.94;5005646;28;20140;-83
2022/03/12 02:57:45;;;;;;;12.27;8.87;;;;;;;4.97;52.79;102289.38;5005509;28;20494;-83
2022/03/12 03:00:13;;;;;;;10.67;7.83;;;;;;;5.11;52.72;102315.16;5005708;28;20126;-83
2022/03/12 03:02:41;;;;;;;9.57;8.40;;;;;;;5.32;53.03;102356.47;5005661;28;20148;-82
2022/03/12 03:05:18;;;;;;;11.43;7.87;;;;;;;5.34;53.11;102346.75;5006753;28;20057;-84
2022/03/12 03:07:48;;;;;;;10.30;8.67;;;;;;;5.29;53.24;102346.06;5005515;28;20703;-84
2022/03/12 03:10:31;;;;;;;10.80;9.17;;;;;;;4.37;52.61;102202.22;5006195;28;20521;-84
2022/03/12 03:12:58;;;;;;;10.27;8.63;;;;;;;5.29;52.85;102346.06;5005105;28;20046;-84
2022/03/12 03:15:25;;;;;;;11.17;7.90;;;;;;;5.26;52.27;102340.91;5005116;28;20060;-83
2022/03/12 03:17:52;;;;;;;12.10;8.47;;;;;;;5.17;53.00;102320.22;5006701;28;20042;-83
2022/03/12 03:20:19;;;;;;;15.53;7.73;;;;;;;5.28;53.16;102340.84;5005176;28;20053;-84
2022/03/12 03:22:45;;;;;;;10.83;8.33;;;;;;;5.29;52.51;102335.53;5005308;28;20077;-84
2022/03/12 03:25:12;;;;;;;10.40;8.07;;;;;;;4.95;53.50;102306.13;5005460;28;20045;-84
2022/03/12 03:27:38;;;;;;;8.93;8.03;;;;;;;5.08;53.60;102341.63;5005114;28;20045;-84
2022/03/12 03:30:06;;;;;;;10.17;8.17;;;;;;;5.08;53.79;102341.63;5003981;28;20064;-83
2022/03/12 03:32:32;;;;;;;10.67;9.27;;;;;;;4.89;53.72;102344.09;5005126;28;20519;-84
2022/03/12 03:34:59;;;;;;;9.13;8.03;;;;;;;5.00;53.62;102349.81;5006088;28;20092;-84
2022/03/12 03:37:25;;;;;;;9.43;7.77;;;;;;;4.91;53.11;102337.84;5005389;28;20375;-84
2022/03/12 03:39:52;;;;;;;9.67;7.73;;;;;;;4.23;53.12;102225.53;5005131;28;20539;-84
2022/03/12 03:42:21;;;;;;;7.97;7.17;;;;;;;4.71;53.86;102322.81;5004819;28;20137;-84
2022/03/12 03:44:48;;;;;;;12.10;7.73;;;;;;;4.84;53.66;102351.28;5005020;28;20060;-83
2022/03/12 03:47:15;;;;;;;8.43;7.17;;;;;;;4.85;54.48;102361.75;5005074;28;20052;-83
2022/03/12 03:49:44;;;;;;;8.63;7.73;;;;;;;4.33;54.08;102276.84;5008307;28;20373;-83
2022/03/12 03:52:10;;;;;;;9.07;8.17;;;;;;;4.91;53.75;102366.78;5008525;28;20424;-84
2022/03/12 03:54:38;;;;;;;10.60;8.05;;;;;;;4.93;54.36;102374.66;5008776;28;20050;-83
2022/03/12 03:57:05;;;;;;;12.93;8.27;;;;;;;4.96;53.98;102371.03;5009850;28;20124;-83
2022/03/12 03:59:31;;;;;;;9.33;8.13;;;;;;;5.04;53.42;102367.19;5008660;28;20141;-84
2022/03/12 04:01:58;;;;;;;10.50;8.37;;;;;;;5.09;53.23;102369.66;5008412;28;20062;-84
2022/03/12 04:04:28;;;;;;;13.07;8.50;;;;;;;4.87;53.07;102341.50;5008677;28;20464;-83
2022/03/12 04:06:55;;;;;;;9.90;8.20;;;;;;;4.95;52.99;102367.53;5009493;28;20054;-84
2022/03/12 04:09:22;;;;;;;10.67;8.77;;;;;;;4.95;52.80;102375.41;5008494;28;20082;-84
2022/03/12 04:11:48;;;;;;;11.37;8.60;;;;;;;4.86;52.61;102373.16;5008288;28;20186;-84
2022/03/12 04:14:15;;;;;;;11.63;8.23;;;;;;;4.89;53.13;102376.50;5008145;28;20415;-83
2022/03/12 04:16:44;;;;;;;9.57;8.17;;;;;;;4.98;53.06;102374.47;5008273;28;20132;-84
2022/03/12 04:19:13;;;;;;;9.57;7.73;;;;;;;5.06;52.55;102359.25;5008363;28;20054;-83
2022/03/12 04:21:40;;;;;;;11.00;8.77;;;;;;;4.93;53.26;102372.00;5008646;28;20056;-80
2022/03/12 04:24:07;;;;;;;14.13;8.70;;;;;;;4.66;53.82;102342.28;5008697;28;20132;-81
2022/03/12 04:26:35;;;;;;;8.97;8.07;;;;;;;3.77;54.72;102217.50;5009081;28;20058;-81
2022/03/12 04:29:08;;;;;;;13.53;8.93;;;;;;;4.41;54.45;102335.28;5009070;28;20049;-80
2022/03/12 04:31:35;;;;;;;9.87;8.57;;;;;;;4.59;54.49;102377.66;5010206;28;20052;-80
2022/03/12 04:34:02;;;;;;;12.07;9.13;;;;;;;4.36;54.55;102345.09;5008637;28;20616;-81
2022/03/12 04:36:29;;;;;;;9.17;8.13;;;;;;;4.45;55.03;102368.44;5008536;28;20141;-81
2022/03/12 04:38:55;;;;;;;11.03;9.03;;;;;;;4.34;54.60;102348.69;5009850;28;20244;-81
2022/03/12 04:41:22;;;;;;;15.60;9.97;;;;;;;4.42;54.95;102362.47;5008770;28;20045;-81
2022/03/12 04:43:50;;;;;;;9.73;8.10;;;;;;;4.53;55.39;102369.94;5008412;28;20057;-81
2022/03/12 04:46:17;;;;;;;15.67;9.70;;;;;;;4.34;55.06;102348.69;5008786;28;20145;-81
2022/03/12 04:48:44;;;;;;;9.93;8.33;;;;;;;4.37;55.43;102354.72;5008609;28;20459;-81
2022/03/12 04:51:11;;;;;;;10.70;8.57;;;;;;;4.45;54.83;102367.59;5009612;28;20052;-81
2022/03/12 04:53:38;;;;;;;12.07;9.20;;;;;;;4.14;55.07;102321.31;5009716;28;20045;-81
2022/03/12 04:56:05;;;;;;;10.10;9.00;;;;;;;4.46;55.72;102378.03;5009219;28;20046;-80
2022/03/12 04:58:32;;;;;;;11.33;8.97;;;;;;;4.37;55.58;102362.63;5012207;28;20132;-81
2022/03/12 05:00:58;;;;;;;11.67;8.50;;;;;;;4.25;55.56;102342.00;5011044;28;20038;-81
2022/03/12 05:03:25;;;;;;;11.23;9.57;;;;;;;4.47;55.82;102371.91;5008555;28;20163;-80
2022/03/12 05:05:54;;;;;;;11.33;9.43;;;;;;;4.38;56.15;102366.94;5009487;28;20125;-81
2022/03/12 05:08:23;;;;;;;11.03;9.37;;;;;;;4.52;55.96;102378.78;5008843;28;20084;-81
2022/03/12 05:10:53;;;;;;;10.90;9.07;;;;;;;4.00;56.51;102290.25;5008125;28;20081;-80
2022/03/12 05:13:25;;;;;;;14.23;9.60;;;;;;;4.42;56.28;102358.06;5009520;28;20574;-81
2022/03/12 05:15:56;;;;;;;14.68;9.38;;;;;;;4.27;56.53;102316.50;5010208;28;20061;-81
2022/03/12 05:18:26;;;;;;;10.30;8.82;;;;;;;4.50;56.24;102371.78;5010364;28;20053;-81
2022/03/12 05:20:53;;;;;;;15.33;9.63;;;;;;;4.40;56.61;102369.53;5013689;28;20054;-81
2022/03/12 05:23:20;;;;;;;11.97;9.23;;;;;;;4.35;56.81;102372.31;5029059;28;20073;-81
2022/03/12 05:25:49;;;;;;;12.13;8.87;;;;;;;4.24;57.42;102356.03;5029538;28;20046;-82
2022/03/12 05:28:25;;;;;;;14.70;8.57;;;;;;;4.29;57.02;102365.47;5008887;28;20160;-81
2022/03/12 05:30:56;;;;;;;12.67;9.80;;;;;;;4.22;56.86;102355.22;5006861;28;20078;-82
2022/03/12 05:33:24;;;;;;;12.63;9.82;;;;;;;4.00;56.99;102327.03;5008194;28;20057;-81
2022/03/12 05:35:53;;;;;;;10.67;9.17;;;;;;;3.63;57.67;102267.84;5006658;28;20569;-81
2022/03/12 05:38:23;;;;;;;11.90;9.37;;;;;;;4.45;57.05;102407.91;5006606;28;20144;-81
2022/03/12 05:40:49;;;;;;;10.23;8.93;;;;;;;4.44;56.78;102408.81;5006764;28;20504;-81
2022/03/12 05:43:17;;;;;;;12.17;9.23;;;;;;;4.47;56.35;102411.34;5006579;28;20480;-80
2022/03/12 05:45:51;;;;;;;12.27;10.83;;;;;;;4.31;56.28;102391.72;5007445;28;20054;-81
2022/03/12 05:48:19;;;;;;;14.80;11.17;;;;;;;4.45;55.90;102420.19;5007677;28;20042;-81
2022/03/12 05:50:48;;;;;;;17.33;10.67;;;;;;;4.02;55.95;102342.78;5006320;28;20404;-81
2022/03/12 05:53:18;;;;;;;15.10;11.13;;;;;;;2.75;56.00;102138.63;5008088;28;20053;-80
2022/03/12 05:55:47;;;;;;;19.47;11.80;;;;;;;4.45;55.98;102404.41;5022881;28;20044;-79
2022/03/12 05:58:18;;;;;;;21.17;11.83;;;;;;;4.44;56.17;102416.72;5022206;28;20408;-81
2022/03/12 06:00:46;;;;;;;11.90;10.23;;;;;;;4.35;56.01;102411.75;5007360;28;20506;-81
2022/03/12 06:03:13;;;;;;;17.53;10.60;;;;;;;4.15;56.66;102396.66;5022876;28;20142;-81
2022/03/12 06:05:43;;;;;;;15.83;11.67;;;;;;;4.11;56.89;102400.28;5023720;28;20046;-80
2022/03/12 06:08:21;;;;;;;12.83;10.70;;;;;;;4.24;57.32;102427.88;5007143;28;20049;-81
2022/03/12 06:10:54;;;;;;;17.40;11.50;;;;;;;4.11;57.22;102420.47;5021509;28;20054;-80
2022/03/12 06:13:23;;;;;;;17.10;12.17;;;;;;;3.85;56.86;102366.97;5005294;28;20464;-81
2022/03/12 06:15:55;;;;;;;14.63;11.33;;;;;;;3.67;57.77;102336.94;5021817;28;20060;-80
2022/03/12 06:18:23;;;;;;;14.70;12.15;;;;;;;4.36;56.95;102452.91;5007246;28;20161;-80
2022/03/12 06:20:50;;;;;;;18.87;14.57;;;;;;;4.41;57.65;102440.47;5005918;28;20136;-81
2022/03/12 06:23:17;;;;;;;21.13;13.30;;;;;;;4.07;57.36;102378.50;5005307;28;20611;-80
2022/03/12 06:25:43;;;;;;;18.03;13.27;;;;;;;4.56;57.05;102452.22;5005349;28;20054;-78
2022/03/12 06:28:10;;;;;;;18.13;11.97;;;;;;;4.35;56.91;102403.88;5005713;28;20150;-80
2022/03/12 06:30:37;;;;;;;14.60;12.20;;;;;;;4.58;57.05;102420.63;5005539;28;20089;-81
2022/03/12 06:33:05;;;;;;;17.03;11.70;;;;;;;4.76;56.44;102441.03;5006339;28;20064;-81
2022/03/12 06:35:32;;;;;;;15.43;12.13;;;;;;;4.79;56.78;102440.94;5006821;28;20064;-81
2022/03/12 06:37:58;;;;;;;16.20;11.73;;;;;;;4.75;57.73;102444.56;5005306;28;20050;-80
2022/03/12 06:40:28;;;;;;;14.07;12.10;;;;;;;4.72;57.27;102444.69;5006686;28;20286;-80
2022/03/12 06:42:59;;;;;;;14.67;11.57;;;;;;;4.61;56.45;102410.88;5005410;28;20580;-82
2022/03/12 06:45:31;;;;;;;14.83;11.07;;;;;;;4.58;56.92;102399.59;5006263;28;20069;-82
2022/03/12 06:47:59;;;;;;;12.03;10.83;;;;;;;4.83;56.54;102450.44;5005475;28;20081;-81
2022/03/12 06:50:26;;;;;;;18.50;10.63;;;;;;;5.04;55.63;102456.69;5005087;28;20147;-81
2022/03/12 06:52:54;;;;;;;13.85;11.77;;;;;;;5.21;55.43;102469.25;5006254;28;20057;-80
2022/03/12 06:55:23;;;;;;;23.40;12.20;;;;;;;5.19;55.20;102457.91;5005225;28;20050;-81
2022/03/12 06:57:53;;;;;;;14.52;11.52;;;;;;;5.17;54.57;102433.44;5005406;28;20058;-80
2022/03/12 07:00:25;;;;;;;16.67;12.50;;;;;;;5.43;54.90;102479.84;5005242;28;20132;-80
2022/03/12 07:02:52;;;;;;;19.37;13.27;;;;;;;5.28;54.94;102457.56;5006309;28;20563;-80
2022/03/12 07:05:20;;;;;;;18.60;13.73;;;;;;;5.46;54.82;102486.78;5004984;28;20578;-80
2022/03/12 07:07:47;;;;;;;14.73;12.65;;;;;;;5.47;55.00;102491.13;5005637;28;20080;-81
2022/03/12 07:10:15;;;;;;;20.00;12.83;;;;;;;5.48;55.01;102487.56;5004887;28;20476;-80
2022/03/12 07:12:44;;;;;;;17.90;13.00;;;;;;;5.56;54.33;102490.81;5021027;28;20407;-81
2022/03/12 07:15:12;;;;;;;16.23;13.47;;;;;;;5.33;54.57;102457.41;5020842;28;20468;-80
2022/03/12 07:17:40;;;;;;;16.53;11.73;;;;;;;5.50;54.15;102470.78;5005257;28;20114;-81
2022/03/12 07:20:12;;;;;;;18.58;12.45;;;;;;;5.37;54.29;102442.38;5004431;28;20049;-81
2022/03/12 07:22:39;;;;;;;18.47;12.50;;;;;;;5.69;54.48;102486.78;5005345;28;20085;-81
2022/03/12 07:25:08;;;;;;;15.97;12.57;;;;;;;5.81;54.29;102495.13;5010713;28;20403;-81
2022/03/12 07:27:35;;;;;;;16.30;12.63;;;;;;;5.63;53.61;102455.41;5009463;28;20053;-81
2022/03/12 07:30:04;;;;;;;13.68;11.75;;;;;;;5.69;53.41;102454.28;5009622;28;20148;-80
2022/03/12 07:32:31;;;;;;;16.17;13.30;;;;;;;5.44;53.20;102397.28;5008625;28;20050;-80
2022/03/12 07:34:58;;;;;;;20.17;12.57;;;;;;;6.17;53.17;102512.16;5009421;28;20073;-81
2022/03/12 07:37:24;;;;;;;21.77;13.15;;;;;;;6.19;52.45;102514.75;5010870;28;20060;-83
2022/03/12 07:39:51;;;;;;;15.85;11.95;;;;;;;6.19;52.58;102497.16;5008710;28;20061;-83
2022/03/12 07:42:18;;;;;;;12.60;11.25;;;;;;;6.03;52.11;102459.13;5014613;28;20142;-83
2022/03/12 07:44:45;;;;;;;20.33;12.20;;;;;;;5.88;51.48;102433.34;5008103;28;20518;-85
2022/03/12 07:47:11;;;;;;;16.85;12.43;;;;;;;6.45;51.49;102521.59;5008322;28;20073;-84
2022/03/12 07:49:38;;;;;;;13.52;11.85;;;;;;;6.12;51.65;102464.03;5007990;28;20431;-84
2022/03/12 07:52:10;;;;;;;18.27;13.02;;;;;;;6.50;51.76;102516.97;5006953;28;20061;-82
2022/03/12 07:54:37;;;;;;;15.13;12.52;;;;;;;6.44;51.38;102496.16;4988979;28;20463;-84
2022/03/12 07:57:04;;;;;;;13.35;11.90;;;;;;;6.56;51.90;102527.28;4989497;28;20086;-83
2022/03/12 07:59:31;;;;;;;17.50;13.00;;;;;;;6.40;51.52;102494.53;4989109;28;20415;-83
2022/03/12 08:01:58;;;;;;;15.60;12.18;;;;;;;6.60;51.91;102522.72;4989063;28;20065;-84
2022/03/12 08:04:26;;;;;;;14.88;13.05;;;;;;;6.58;52.26;102520.19;4988964;28;20523;-84
2022/03/12 08:06:53;;;;;;;15.63;12.32;;;;;;;6.58;51.99;102530.75;4989146;28;20141;-84
2022/03/12 08:09:19;;;;;;;14.60;12.43;;;;;;;6.61;51.81;102530.59;4988962;28;20129;-84
2022/03/12 08:11:47;;;;;;;16.92;11.93;;;;;;;6.56;52.40;102518.53;4991040;28;20042;-84
2022/03/12 08:14:17;;;;;;;19.30;13.35;;;;;;;6.52;52.19;102506.38;4991942;28;20508;-84
2022/03/12 08:16:44;;;;;;;17.85;13.27;;;;;;;6.50;52.50;102505.56;5011142;28;20054;-83
2022/03/12 08:19:12;;;;;;;13.63;12.18;;;;;;;6.70;52.60;102533.78;5008844;28;20315;-84
2022/03/12 08:21:39;;;;;;;13.98;12.27;;;;;;;6.80;52.28;102540.41;5009939;28;20127;-84
2022/03/12 08:24:12;;;;;;;14.27;11.93;;;;;;;6.87;52.23;102536.59;5008667;28;20057;-84
2022/03/12 08:26:41;;;;;;;17.50;12.85;;;;;;;6.68;52.17;102501.31;5008503;28;20411;-84
2022/03/12 08:29:12;;;;;;;14.45;12.82;;;;;;;6.81;51.87;102515.72;5008159;28;20046;-84
2022/03/12 08:31:39;;;;;;;18.17;12.85;;;;;;;7.06;51.97;102537.50;5008154;28;20056;-84
2022/03/12 08:34:07;;;;;;;17.17;13.95;;;;;;;6.85;51.79;102494.41;5008036;28;20099;-85
2022/03/12 08:36:34;;;;;;;14.88;13.30;;;;;;;7.12;52.04;102540.81;5007911;28;20093;-84
2022/03/12 08:39:00;;;;;;;17.38;14.48;;;;;;;6.94;52.37;102511.63;5008485;28;20187;-82
2022/03/12 08:41:27;;;;;;;17.95;14.93;;;;;;;6.79;52.21;102470.03;5009355;28;20050;-82
2022/03/12 08:43:54;;;;;;;19.52;14.85;;;;;;;7.13;52.38;102531.94;5032195;28;20069;-80
2022/03/12 08:46:20;;;;;;;16.90;14.25;;;;;;;7.07;52.23;102510.16;5044983;28;20089;-83
2022/03/12 08:48:48;;;;;;;19.45;14.10;;;;;;;6.83;52.38;102475.13;5039856;28;20053;-83
2022/03/12 08:51:15;;;;;;;26.35;16.02;;;;;;;7.47;51.89;102536.59;5019629;28;20554;-83
2022/03/12 08:53:42;;;;;;;15.60;14.00;;;;;;;7.31;51.85;102514.44;5008262;28;20050;-83
2022/03/12 08:56:09;;;;;;;17.67;15.70;;;;;;;7.36;52.05;102518.59;5007986;28;20140;-82
2022/03/12 08:58:37;;;;;;;17.60;14.45;;;;;;;7.40;52.75;102530.75;5007947;28;20042;-84
2022/03/12 09:01:06;;;;;;;19.02;14.88;;;;;;;7.58;52.08;102529.03;5007839;28;20054;-84
2022/03/12 09:03:33;;;;;;;16.13;14.23;;;;;;;7.33;51.74;102460.59;5007375;28;20057;-84
2022/03/12 09:06:00;;;;;;;18.15;15.45;;;;;;;7.51;52.70;102513.53;5007900;28;20062;-84
2022/03/12 09:08:27;;;;;;;23.23;15.88;;;;;;;7.35;52.68;102485.16;5007350;28;20455;-83
2022/03/12 09:10:55;;;;;;;17.63;15.15;;;;;;;7.71;52.72;102519.59;5007994;28;20053;-84
2022/03/12 09:13:22;;;;;;;20.63;14.80;;;;;;;7.64;51.69;102464.44;5008641;28;20056;-83
2022/03/12 09:15:49;;;;;;;19.65;15.38;;;;;;;8.09;52.06;102532.81;5008579;28;20117;-84
2022/03/12 09:18:16;;;;;;;17.30;15.07;;;;;;;8.11;52.04;102527.47;5007727;28;20387;-83
2022/03/12 09:20:45;;;;;;;17.45;14.93;;;;;;;8.35;51.88;102536.03;5007176;28;20201;-83
2022/03/12 09:23:14;;;;;;;14.95;13.35;;;;;;;8.49;51.41;102538.00;5007261;28;20049;-83
2022/03/12 09:25:41;;;;;;;15.38;13.77;;;;;;;8.34;51.10;102491.94;5006929;28;20045;-82
2022/03/12 09:28:09;;;;;;;15.50;13.13;;;;;;;8.75;51.33;102540.22;5007513;28;20145;-82
2022/03/12 09:30:38;;;;;;;14.85;13.32;;;;;;;8.23;50.22;102401.63;5007091;28;20419;-82
2022/03/12 09:33:06;;;;;;;15.77;12.10;;;;;;;9.11;49.67;102515.41;5006860;28;20089;-82
2022/03/12 09:35:34;;;;;;;14.00;12.48;;;;;;;8.23;49.08;102331.09;5007142;28;20098;-82
2022/03/12 09:38:01;;;;;;;16.65;12.40;;;;;;;9.40;49.15;102532.44;5006955;28;20054;-82
2022/03/12 09:40:30;;;;;;;14.85;13.20;;;;;;;9.41;48.33;102527.97;5007021;28;20424;-83
2022/03/12 09:42:57;;;;;;;14.45;12.95;;;;;;;9.23;47.95;102491.88;5006847;28;20154;-81
2022/03/12 09:45:24;;;;;;;14.23;12.80;;;;;;;9.56;48.82;102524.53;5007275;28;20042;-79
2022/03/12 09:47:51;;;;;;;21.20;13.88;;;;;;;9.78;48.13;102520.69;5007547;28;20137;-82
2022/03/12 09:50:18;;;;;;;13.48;12.07;;;;;;;9.28;47.33;102411.16;5007484;28;20069;-82
2022/03/12 09:52:45;;;;;;;17.60;13.07;;;;;;;10.03;47.06;102504.28;5003519;28;20046;-83
2022/03/12 09:55:13;;;;;;;13.52;11.15;;;;;;;10.05;45.15;102486.47;4988406;28;20057;-82
2022/03/12 09:57:43;;;;;;;16.70;11.88;;;;;;;10.23;45.88;102527.88;5001938;28;20233;-83
2022/03/12 10:00:11;;;;;;;15.45;11.63;;;;;;;10.33;45.55;102522.94;5002747;28;20042;-83
2022/03/12 10:02:38;;;;;;;15.68;12.27;;;;;;;10.26;45.23;102487.03;5003183;28;20066;-83
2022/03/12 10:05:05;;;;;;;12.82;11.63;;;;;;;10.58;44.63;102510.88;5003521;28;20278;-83
2022/03/12 10:07:32;;;;;;;14.98;13.10;;;;;;;10.52;45.31;102487.34;4987038;28;20047;-83
2022/03/12 10:09:59;;;;;;;11.82;10.57;;;;;;;10.04;43.86;102394.53;4987117;28;20082;-83
2022/03/12 10:12:26;;;;;;;11.55;10.32;;;;;;;10.87;43.03;102482.59;4986636;28;20069;-83
2022/03/12 10:14:57;;;;;;;11.15;9.32;;;;;;;10.98;42.95;102514.69;4989327;28;20089;-80
2022/03/12 10:17:24;;;;;;;11.95;9.20;;;;;;;11.06;42.09;102499.13;4988043;28;20145;-82
2022/03/12 10:19:51;;;;;;;11.00;9.68;;;;;;;10.83;42.19;102459.81;5003016;28;20050;-83
2022/03/12 10:22:19;;;;;;;13.23;10.23;;;;;;;11.16;42.71;102507.41;4987798;28;20504;-83
2022/03/12 10:24:45;;;;;;;11.75;10.15;;;;;;;11.32;42.32;102502.84;4986598;28;20054;-81
2022/03/12 10:27:14;;;;;;;10.68;9.35;;;;;;;11.18;41.58;102457.66;4986456;28;20393;-83
2022/03/12 10:29:41;;;;;;;10.65;9.55;;;;;;;11.58;40.34;102508.38;5002342;28;20049;-82
2022/03/12 10:32:42;;;;;;;10.70;9.27;;;;;;;11.70;39.99;102494.28;5002820;28;20058;-82
2022/03/12 10:35:09;;;;;;;10.55;9.23;;;;;;;11.90;39.42;102481.53;5002825;28;20089;-82
2022/03/12 10:37:36;;;;;;;10.98;9.80;;;;;;;12.03;39.47;102493.09;4987638;28;20148;-83
2022/03/12 10:40:17;;;;;;;11.07;9.88;;;;;;;11.39;38.86;102390.81;5002665;28;20054;-83
2022/03/12 10:42:59;;;;;;;12.10;10.68;;;;;;;11.66;38.69;102462.66;4986597;28;20062;-82
2022/03/12 10:45:32;;;;;;;13.35;10.32;;;;;;;11.73;38.89;102485.25;4986237;28;20050;-82
2022/03/12 10:48:07;;;;;;;11.45;9.85;;;;;;;11.64;38.85;102465.41;4987432;28;20089;-80
2022/03/12 10:50:44;;;;;;;14.88;12.25;;;;;;;11.32;38.92;102401.81;4986088;28;20599;-82
2022/03/12 10:53:14;;;;;;;12.35;10.07;;;;;;;11.91;38.30;102478.75;4993214;28;20073;-83
2022/03/12 10:55:43;;;;;;;14.55;11.75;;;;;;;11.32;38.85;102351.28;4986065;28;20146;-83
2022/03/12 10:58:13;;;;;;;13.48;11.93;;;;;;;12.25;38.04;102481.03;4986286;28;20056;-83
2022/03/12 11:00:44;;;;;;;13.95;11.45;;;;;;;12.06;37.70;102418.34;4986489;28;20046;-82
2022/03/12 11:03:15;;;;;;;11.65;10.45;;;;;;;12.53;37.72;102464.06;4983550;28;20424;-83
2022/03/12 11:05:43;;;;;;;14.60;11.75;;;;;;;12.45;37.46;102459.25;4983716;28;20054;-82
2022/03/12 11:08:15;;;;;;;16.80;11.30;;;;;;;12.39;37.46;102403.72;4985970;28;20122;-83
2022/03/12 11:10:57;;;;;;;12.77;11.33;;;;;;;12.98;37.13;102461.84;4986198;28;20062;-84
2022/03/12 11:13:47;;;;;;;13.20;11.60;;;;;;;13.37;36.59;102454.69;4986221;28;20305;-83
2022/03/12 11:16:31;;;;;;;11.93;10.65;;;;;;;12.99;35.60;102403.09;5002967;28;20479;-84
2022/03/12 11:19:07;;;;;;;11.88;10.68;;;;;;;13.02;36.80;102450.03;5005416;28;20057;-82
2022/03/12 11:22:01;;;;;;;12.23;10.60;;;;;;;12.60;36.30;102391.59;5005792;28;20046;-83
2022/03/12 11:24:44;;;;;;;14.70;11.23;;;;;;;12.75;36.42;102458.13;5005384;28;20085;-83
2022/03/12 11:27:14;;;;;;;17.20;11.80;;;;;;;12.82;36.47;102449.59;5005325;28;20103;-82